createdAt,value
2018-01-26T00:02:05.704Z,10.50
2018-01-26T00:04:33.322Z,11.90
2018-01-26T00:07:00.942Z,14.50
2018-01-26T00:09:28.543Z,10.43
2018-01-26T00:11:56.150Z,15.23
2018-01-26T00:14:23.741Z,8.40
2018-01-26T00:16:51.603Z,15.23
2018-01-26T00:19:19.195Z,10.90
2018-01-26T00:21:46.789Z,12.43
2018-01-26T00:24:14.427Z,11.97
2018-01-26T00:26:42.014Z,13.53
2018-01-26T00:29:09.615Z,7.37
2018-01-26T00:31:37.212Z,8.63
2018-01-26T00:34:05.143Z,6.00
2018-01-26T00:36:32.732Z,11.00
2018-01-26T00:39:00.475Z,13.63
2018-01-26T00:41:28.096Z,7.40
2018-01-26T00:43:55.683Z,22.30
2018-01-26T00:46:23.300Z,10.03
2018-01-26T00:48:50.892Z,10.93
2018-01-26T00:51:18.541Z,9.73
2018-01-26T00:53:46.141Z,8.67
2018-01-26T00:56:13.729Z,7.83
2018-01-26T00:58:41.343Z,13.33
2018-01-26T01:01:08.932Z,7.30
2018-01-26T01:03:36.531Z,7.73
2018-01-26T01:06:04.119Z,16.33
2018-01-26T01:08:32.095Z,8.30
2018-01-26T01:10:59.695Z,13.60
2018-01-26T01:13:27.275Z,9.07
2018-01-26T01:15:54.891Z,9.77
2018-01-26T01:18:22.485Z,10.43
2018-01-26T01:20:50.093Z,11.77
2018-01-26T01:23:17.691Z,16.33
2018-01-26T01:25:45.512Z,9.77
2018-01-26T01:28:13.093Z,9.57
2018-01-26T01:30:40.684Z,10.00
2018-01-26T01:33:08.289Z,6.80
2018-01-26T01:35:35.876Z,12.30
2018-01-26T01:38:03.500Z,13.03
2018-01-26T01:40:31.092Z,7.67
2018-01-26T01:42:58.716Z,13.30
2018-01-26T01:45:26.301Z,8.30
2018-01-26T01:47:53.939Z,12.30
2018-01-26T01:50:21.533Z,10.60
2018-01-26T01:52:49.123Z,11.40
2018-01-26T01:55:16.734Z,13.37
2018-01-26T01:57:45.306Z,11.77
2018-01-26T02:00:13.304Z,14.07
2018-01-26T02:02:40.890Z,9.17
2018-01-26T02:05:08.488Z,10.90
2018-01-26T02:07:36.102Z,12.27
2018-01-26T02:10:03.698Z,10.40
2018-01-26T02:12:31.515Z,12.57
2018-01-26T02:14:59.104Z,13.90
2018-01-26T02:17:26.696Z,9.20
2018-01-26T02:19:54.342Z,16.83
2018-01-26T02:22:21.936Z,8.17
2018-01-26T02:24:49.552Z,9.90
2018-01-26T02:27:17.151Z,11.73
2018-01-26T02:29:44.946Z,11.63
2018-01-26T02:32:12.589Z,9.53
2018-01-26T02:34:40.292Z,7.77
2018-01-26T02:37:07.915Z,14.20
2018-01-26T02:39:35.504Z,8.90
2018-01-26T02:42:03.127Z,15.30
2018-01-26T02:44:30.743Z,10.27
2018-01-26T02:46:58.578Z,8.43
2018-01-26T02:49:26.163Z,11.83
2018-01-26T02:51:53.752Z,17.30
2018-01-26T02:54:22.450Z,9.37
2018-01-26T02:56:50.034Z,9.57
2018-01-26T02:59:17.650Z,15.70
2018-01-26T03:01:45.237Z,10.40
2018-01-26T03:04:12.827Z,7.93
2018-01-26T03:06:40.462Z,13.23
2018-01-26T03:09:08.060Z,12.00
2018-01-26T03:11:36.027Z,12.10
2018-01-26T03:14:03.615Z,9.90
2018-01-26T03:16:31.215Z,10.60
2018-01-26T03:18:58.831Z,14.60
2018-01-26T03:21:26.416Z,8.10
2018-01-26T03:23:54.023Z,5.53
2018-01-26T03:26:21.629Z,10.40
2018-01-26T03:28:49.553Z,7.80
2018-01-26T03:31:17.219Z,13.93
2018-01-26T03:33:44.803Z,10.30
2018-01-26T03:36:12.402Z,12.90
2018-01-26T03:38:40.002Z,7.77
2018-01-26T03:41:07.620Z,11.60
2018-01-26T03:43:35.202Z,7.87
2018-01-26T03:46:02.987Z,10.10
2018-01-26T03:48:30.586Z,10.50
2018-01-26T03:50:58.177Z,14.23
2018-01-26T03:53:25.809Z,14.10
2018-01-26T03:55:53.425Z,11.63
2018-01-26T03:58:21.048Z,18.80
2018-01-26T04:00:48.641Z,10.60
2018-01-26T04:03:16.578Z,10.77
2018-01-26T04:05:44.163Z,13.90
2018-01-26T04:08:11.748Z,14.87
2018-01-26T04:10:39.364Z,11.53
2018-01-26T04:13:06.977Z,11.73
2018-01-26T04:15:34.601Z,16.53
2018-01-26T04:18:02.201Z,18.27
2018-01-26T04:20:29.960Z,8.80
2018-01-26T04:22:57.556Z,10.73
2018-01-26T04:25:25.144Z,12.90
2018-01-26T04:27:52.763Z,11.77
2018-01-26T04:30:20.356Z,14.23
2018-01-26T04:32:47.962Z,11.00
2018-01-26T04:35:15.556Z,11.40
2018-01-26T04:37:43.574Z,13.07
2018-01-26T04:40:11.175Z,13.87
2018-01-26T04:42:38.764Z,16.23
2018-01-26T04:45:06.380Z,10.13
2018-01-26T04:47:33.966Z,15.47
2018-01-26T04:50:02.544Z,13.80
2018-01-26T04:52:30.140Z,11.67
2018-01-26T04:54:57.778Z,10.33
2018-01-26T04:57:25.367Z,9.97
2018-01-26T04:59:52.958Z,10.90
2018-01-26T05:02:20.587Z,10.50
2018-01-26T05:04:48.186Z,14.47
2018-01-26T05:07:15.933Z,14.60
2018-01-26T05:09:43.549Z,10.27
2018-01-26T05:12:11.353Z,14.30
2018-01-26T05:14:38.944Z,10.90
2018-01-26T05:17:06.530Z,14.67
2018-01-26T05:19:34.142Z,15.20
2018-01-26T05:22:01.735Z,10.77
2018-01-26T05:24:29.349Z,10.57
2018-01-26T05:26:56.946Z,19.90
2018-01-26T05:29:24.870Z,8.27
2018-01-26T05:31:52.522Z,11.70
2018-01-26T05:34:20.126Z,16.90
2018-01-26T05:36:47.738Z,9.87
2018-01-26T05:39:15.321Z,12.90
2018-01-26T05:41:42.976Z,10.47
2018-01-26T05:44:10.603Z,13.83
2018-01-26T05:46:38.423Z,8.17
2018-01-26T05:49:06.019Z,13.10
2018-01-26T05:51:33.614Z,20.30
2018-01-26T05:54:01.226Z,9.50
2018-01-26T05:56:28.807Z,22.73
2018-01-26T05:58:56.411Z,12.40
2018-01-26T06:01:24.020Z,20.20
2018-01-26T06:03:51.678Z,12.50
2018-01-26T06:06:19.273Z,13.30
2018-01-26T06:08:46.869Z,10.87
2018-01-26T06:11:14.488Z,10.97
2018-01-26T06:13:42.092Z,23.80
2018-01-26T06:16:09.704Z,11.50
2018-01-26T06:18:37.315Z,16.83
2018-01-26T06:21:04.947Z,40.97
2018-01-26T06:23:32.532Z,15.33
2018-01-26T06:26:00.132Z,31.47
2018-01-26T06:28:27.743Z,10.43
2018-01-26T06:30:55.329Z,11.40
2018-01-26T06:33:23.079Z,13.70
2018-01-26T06:35:50.672Z,10.63
2018-01-26T06:38:18.282Z,15.20
2018-01-26T06:40:45.907Z,10.67
2018-01-26T06:43:13.816Z,12.63
2018-01-26T06:45:41.406Z,27.27
2018-01-26T06:48:09.011Z,14.63
2018-01-26T06:50:36.664Z,12.07
2018-01-26T06:53:04.258Z,10.77
2018-01-26T06:55:31.870Z,20.03
2018-01-26T06:57:59.462Z,11.13
2018-01-26T07:00:27.119Z,14.27
2018-01-26T07:02:54.702Z,11.30
2018-01-26T07:05:22.305Z,11.40
2018-01-26T07:07:49.908Z,9.63
2018-01-26T07:10:17.555Z,12.23
2018-01-26T07:12:45.184Z,16.47
2018-01-26T07:15:12.776Z,17.70
2018-01-26T07:17:40.412Z,14.97
2018-01-26T07:20:07.995Z,11.43
2018-01-26T07:22:35.602Z,15.37
2018-01-26T07:25:03.224Z,14.20
2018-01-26T07:27:30.852Z,14.20
2018-01-26T07:29:58.460Z,13.23
2018-01-26T07:32:26.048Z,11.90
2018-01-26T07:34:53.763Z,15.87
2018-01-26T07:37:21.353Z,18.83
2018-01-26T07:39:48.963Z,11.53
2018-01-26T07:42:16.576Z,12.33
2018-01-26T07:44:44.174Z,11.00
2018-01-26T07:47:11.783Z,10.83
2018-01-26T07:49:39.401Z,15.00
2018-01-26T07:52:07.027Z,15.03
2018-01-26T07:54:34.652Z,11.67
2018-01-26T07:57:02.245Z,20.50
2018-01-26T07:59:29.882Z,12.47
2018-01-26T08:01:57.468Z,20.33
2018-01-26T08:04:25.103Z,16.37
2018-01-26T08:06:52.731Z,14.53
2018-01-26T08:09:20.368Z,10.70
2018-01-26T08:11:48.011Z,14.53
2018-01-26T08:14:15.603Z,13.23
2018-01-26T08:16:43.240Z,10.87
2018-01-26T08:19:10.839Z,12.93
2018-01-26T08:21:38.458Z,15.20
2018-01-26T08:24:06.096Z,15.83
2018-01-26T08:26:33.965Z,16.97
2018-01-26T08:29:01.599Z,13.13
2018-01-26T08:31:29.195Z,10.23
2018-01-26T08:33:57.393Z,10.90
2018-01-26T08:36:25.043Z,12.47
2018-01-26T08:38:52.655Z,15.23
2018-01-26T08:41:20.452Z,12.23
2018-01-26T08:43:48.094Z,11.80
2018-01-26T08:46:15.684Z,14.70
2018-01-26T08:48:43.333Z,11.90
2018-01-26T08:51:10.948Z,18.13
2018-01-26T08:53:38.906Z,16.43
2018-01-26T08:56:06.559Z,11.17
2018-01-26T08:58:34.231Z,13.40
2018-01-26T09:01:02.122Z,10.27
2018-01-26T09:03:29.707Z,15.57
2018-01-26T09:05:57.310Z,19.67
2018-01-26T09:08:24.991Z,26.00
2018-01-26T09:10:52.584Z,22.33
2018-01-26T09:13:20.224Z,15.73
2018-01-26T09:15:47.828Z,40.97
2018-01-26T09:18:15.415Z,17.10
2018-01-26T09:20:43.023Z,22.50
2018-01-26T09:23:10.615Z,16.57
2018-01-26T09:25:38.255Z,23.07
2018-01-26T09:28:05.850Z,18.83
2018-01-26T09:30:33.440Z,13.63
2018-01-26T09:33:01.043Z,14.30
2018-01-26T09:35:28.662Z,21.43
2018-01-26T09:37:56.319Z,13.53
2018-01-26T09:40:23.907Z,18.60
2018-01-26T09:42:51.528Z,18.80
2018-01-26T09:45:19.153Z,15.97
2018-01-26T09:47:46.747Z,46.43
2018-01-26T09:50:14.701Z,21.90
2018-01-26T09:52:42.294Z,23.20
2018-01-26T09:55:09.885Z,15.27
2018-01-26T09:57:36.793Z,12.60
2018-01-26T10:00:04.385Z,29.60
2018-01-26T10:02:32.016Z,13.97
2018-01-26T10:04:59.618Z,31.67
2018-01-26T10:07:27.285Z,26.40
2018-01-26T10:09:55.167Z,13.80
2018-01-26T10:12:22.782Z,14.37
2018-01-26T10:14:50.424Z,15.50
2018-01-26T10:17:18.108Z,15.83
2018-01-26T10:19:45.724Z,19.73
2018-01-26T10:22:13.328Z,18.73
2018-01-26T10:24:40.938Z,16.13
2018-01-26T10:27:08.565Z,16.63
2018-01-26T10:29:36.218Z,17.23
2018-01-26T10:32:03.844Z,10.37
2018-01-26T10:34:31.726Z,16.83
2018-01-26T10:36:59.316Z,15.37
2018-01-26T10:39:26.926Z,24.33
2018-01-26T10:41:54.531Z,12.30
2018-01-26T10:44:22.146Z,12.07
2018-01-26T10:46:49.738Z,14.50
2018-01-26T10:49:17.342Z,13.20
2018-01-26T10:51:45.005Z,13.63
2018-01-26T10:54:12.601Z,20.10
2018-01-26T10:56:40.220Z,17.70
2018-01-26T10:59:07.827Z,23.77
2018-01-26T11:01:35.424Z,13.63
2018-01-26T11:04:03.325Z,15.20
2018-01-26T11:06:30.935Z,18.83
2018-01-26T11:08:58.664Z,12.70
2018-01-26T11:11:26.332Z,11.00
2018-01-26T11:13:53.965Z,14.00
2018-01-26T11:16:21.579Z,15.27
2018-01-26T11:18:49.184Z,13.70
2018-01-26T11:21:16.829Z,22.63
2018-01-26T11:23:44.444Z,14.33
2018-01-26T11:26:12.043Z,14.93
2018-01-26T11:28:39.672Z,12.47
2018-01-26T11:31:07.273Z,13.33
2018-01-26T11:33:35.092Z,13.00
2018-01-26T11:36:02.682Z,21.53
2018-01-26T11:38:30.279Z,15.70
2018-01-26T11:40:57.893Z,17.53
2018-01-26T11:43:25.490Z,17.33
2018-01-26T11:45:53.303Z,11.90
2018-01-26T11:48:20.906Z,15.77
2018-01-26T11:50:48.512Z,15.57
2018-01-26T11:53:16.133Z,12.63
2018-01-26T11:55:43.728Z,14.57
2018-01-26T11:58:11.707Z,14.50
2018-01-26T12:00:39.320Z,20.20
2018-01-26T12:03:06.945Z,12.47
2018-01-26T12:05:34.847Z,15.80
2018-01-26T12:08:02.597Z,15.83
2018-01-26T12:10:30.560Z,15.73
2018-01-26T12:12:58.172Z,14.87
2018-01-26T12:15:26.180Z,17.20
2018-01-26T12:17:53.805Z,15.57
2018-01-26T12:20:21.492Z,11.93
2018-01-26T12:22:49.152Z,17.93
2018-01-26T12:25:16.787Z,15.03
2018-01-26T12:27:44.434Z,19.63
2018-01-26T12:30:12.039Z,21.80
2018-01-26T12:32:39.740Z,19.40
2018-01-26T12:35:07.349Z,20.87
2018-01-26T12:37:34.968Z,18.07
2018-01-26T12:40:02.593Z,21.37
2018-01-26T12:42:30.228Z,28.23
2018-01-26T12:44:58.212Z,31.23
2018-01-26T12:47:25.843Z,23.57
2018-01-26T12:49:53.438Z,15.93
2018-01-26T12:52:21.059Z,16.80
2018-01-26T12:54:48.649Z,21.80
2018-01-26T12:57:16.298Z,15.17
2018-01-26T12:59:43.887Z,16.97
2018-01-26T13:02:11.848Z,14.27
2018-01-26T13:04:39.459Z,13.93
2018-01-26T13:07:07.047Z,21.10
2018-01-26T13:09:34.674Z,22.43
2018-01-26T13:12:02.296Z,22.13
2018-01-26T13:14:29.913Z,19.50
2018-01-26T13:16:57.516Z,12.03
2018-01-26T13:19:25.276Z,11.50
2018-01-26T13:21:52.873Z,10.83
2018-01-26T13:24:20.467Z,6.87
2018-01-26T13:26:48.093Z,12.60
2018-01-26T13:29:15.692Z,12.20
2018-01-26T13:31:43.332Z,11.33
2018-01-26T13:34:10.946Z,12.63
2018-01-26T13:36:38.611Z,15.17
2018-01-26T13:39:06.209Z,13.40
2018-01-26T13:41:33.803Z,13.23
2018-01-26T13:44:01.430Z,13.80
2018-01-26T13:46:29.023Z,12.07
2018-01-26T13:48:56.645Z,6.80
2018-01-26T13:51:24.246Z,7.40
2018-01-26T13:53:51.863Z,8.80
2018-01-26T13:56:19.462Z,10.80
2018-01-26T13:58:47.055Z,9.00
2018-01-26T14:01:14.691Z,13.50
2018-01-26T14:03:42.279Z,6.33
2018-01-26T14:06:09.896Z,6.60
2018-01-26T14:08:37.496Z,11.27
2018-01-26T14:11:05.132Z,11.03
2018-01-26T14:13:32.720Z,8.07
2018-01-26T14:16:00.349Z,5.30
2018-01-26T14:18:27.996Z,8.43
2018-01-26T14:20:55.611Z,14.00
2018-01-26T14:23:23.240Z,8.27
2018-01-26T14:25:50.840Z,12.90
2018-01-26T14:28:18.505Z,4.73
2018-01-26T14:30:46.101Z,9.37
2018-01-26T14:33:13.707Z,11.10
2018-01-26T14:35:41.479Z,6.43
2018-01-26T14:38:09.201Z,8.70
2018-01-26T14:40:36.814Z,13.80
2018-01-26T14:43:04.412Z,10.17
2018-01-26T14:45:31.545Z,12.93
2018-01-26T14:47:59.145Z,9.53
2018-01-26T14:50:26.754Z,13.63
2018-01-26T14:52:54.392Z,8.83
2018-01-26T14:55:21.996Z,15.03
2018-01-26T14:57:49.606Z,10.67
2018-01-26T15:00:17.198Z,9.90
2018-01-26T15:02:45.040Z,13.43
2018-01-26T15:05:12.645Z,11.13
2018-01-26T15:07:40.251Z,13.60
2018-01-26T15:10:07.873Z,14.30
2018-01-26T15:12:35.507Z,19.23
2018-01-26T15:15:03.133Z,23.77
2018-01-26T15:17:30.737Z,13.33
2018-01-26T15:19:58.562Z,15.77
2018-01-26T15:22:26.184Z,11.77
2018-01-26T15:24:53.837Z,10.40
2018-01-26T15:27:21.457Z,8.00
2018-01-26T15:29:49.063Z,11.33
2018-01-26T15:32:16.682Z,9.20
2018-01-26T15:34:44.267Z,5.90
2018-01-26T15:37:11.907Z,8.37
2018-01-26T15:39:39.522Z,10.63
2018-01-26T15:42:07.110Z,8.23
2018-01-26T15:44:34.732Z,7.87
2018-01-26T15:47:02.344Z,6.57
2018-01-26T15:49:29.962Z,9.40
2018-01-26T15:51:57.587Z,6.70
2018-01-26T15:54:25.227Z,11.37
2018-01-26T15:56:52.808Z,9.07
2018-01-26T15:59:20.440Z,20.10
2018-01-26T16:01:48.112Z,10.57
2018-01-26T16:04:15.747Z,9.70
2018-01-26T16:06:43.334Z,8.20
2018-01-26T16:09:11.077Z,9.13
2018-01-26T16:11:38.663Z,11.50
2018-01-26T16:14:06.268Z,9.20
2018-01-26T16:16:33.894Z,7.77
2018-01-26T16:19:01.527Z,9.83
2018-01-26T16:21:29.163Z,10.10
2018-01-26T16:23:56.756Z,10.03
2018-01-26T16:26:24.634Z,8.67
2018-01-26T16:28:52.239Z,11.73
2018-01-26T16:31:19.870Z,10.17
2018-01-26T16:33:47.488Z,10.83
2018-01-26T16:36:15.077Z,8.20
2018-01-26T16:38:42.741Z,10.03
2018-01-26T16:41:10.349Z,11.53
2018-01-26T16:43:38.259Z,8.73
2018-01-26T16:46:05.873Z,13.43
2018-01-26T16:48:33.470Z,15.03
2018-01-26T16:51:01.094Z,12.43
2018-01-26T16:53:28.730Z,13.53
2018-01-26T16:55:56.349Z,12.67
2018-01-26T16:58:23.958Z,8.87
2018-01-26T17:00:51.903Z,10.73
2018-01-26T17:03:19.500Z,12.00
2018-01-26T17:05:47.095Z,11.13
2018-01-26T17:08:14.723Z,14.70
2018-01-26T17:10:42.312Z,8.90
2018-01-26T17:13:09.924Z,14.97
2018-01-26T17:15:37.520Z,13.60
2018-01-26T17:18:05.423Z,11.03
2018-01-26T17:20:33.022Z,10.50
2018-01-26T17:23:00.627Z,14.70
2018-01-26T17:25:28.259Z,17.00
2018-01-26T17:27:55.877Z,10.80
2018-01-26T17:30:23.497Z,10.60
2018-01-26T17:32:51.111Z,14.20
2018-01-26T17:35:18.959Z,13.93
2018-01-26T17:37:46.554Z,15.23
2018-01-26T17:40:14.192Z,12.30
2018-01-26T17:42:41.803Z,10.70
2018-01-26T17:45:09.407Z,8.80
2018-01-26T17:47:37.024Z,10.10
2018-01-26T17:50:04.624Z,11.77
2018-01-26T17:52:32.503Z,9.13
2018-01-26T17:55:00.708Z,15.10
2018-01-26T17:57:28.312Z,9.83
2018-01-26T17:59:55.959Z,17.20
2018-01-26T18:02:23.572Z,17.33
2018-01-26T18:04:51.206Z,18.50
2018-01-26T18:07:18.795Z,9.20
2018-01-26T18:09:46.755Z,11.30
2018-01-26T18:12:14.354Z,17.17
2018-01-26T18:14:41.947Z,13.63
2018-01-26T18:17:09.575Z,12.23
2018-01-26T18:19:37.205Z,13.60
2018-01-26T18:22:04.838Z,11.87
2018-01-26T18:24:32.427Z,16.13
2018-01-26T18:27:00.105Z,15.67
2018-01-26T18:29:27.725Z,12.20
2018-01-26T18:31:55.322Z,12.90
2018-01-26T18:34:22.956Z,15.27
2018-01-26T18:36:50.573Z,9.77
2018-01-26T18:39:18.204Z,11.40
2018-01-26T18:41:45.811Z,13.77
2018-01-26T18:44:13.438Z,13.03
2018-01-26T18:46:41.055Z,18.10
2018-01-26T18:49:08.832Z,9.40
2018-01-26T18:51:36.446Z,11.47
2018-01-26T18:54:04.058Z,14.90
2018-01-26T18:56:31.704Z,13.03
2018-01-26T18:58:59.315Z,14.93
2018-01-26T19:01:26.944Z,20.50
2018-01-26T19:03:54.534Z,15.10
2018-01-26T19:06:22.129Z,12.10
2018-01-26T19:08:49.758Z,13.47
2018-01-26T19:11:17.378Z,18.87
2018-01-26T19:13:45.000Z,17.13
2018-01-26T19:16:12.602Z,17.00
2018-01-26T19:18:40.235Z,13.07
2018-01-26T19:21:07.861Z,15.90
2018-01-26T19:23:35.451Z,14.23
2018-01-26T19:26:03.072Z,12.30
2018-01-26T19:28:30.661Z,13.03
2018-01-26T19:30:58.280Z,16.53
2018-01-26T19:33:25.871Z,17.83
2018-01-26T19:35:53.599Z,19.20
2018-01-26T19:38:21.196Z,16.53
2018-01-26T19:40:48.799Z,20.93
2018-01-26T19:43:16.414Z,22.73
2018-01-26T19:45:44.017Z,19.87
2018-01-26T19:48:11.639Z,22.83
2018-01-26T19:50:39.235Z,11.37
2018-01-26T19:53:07.120Z,20.20
2018-01-26T19:55:34.725Z,18.53
2018-01-26T19:58:03.099Z,21.27
2018-01-26T20:00:30.726Z,17.60
2018-01-26T20:03:09.958Z,23.80
2018-01-26T20:09:09.493Z,18.83
2018-01-26T20:11:37.079Z,20.60
2018-01-26T20:14:05.116Z,19.03
2018-01-26T20:16:32.707Z,18.97
2018-01-26T20:19:00.301Z,17.53
2018-01-26T20:21:27.932Z,16.87
2018-01-26T20:23:55.534Z,17.03
2018-01-26T20:26:23.156Z,18.73
2018-01-26T20:28:50.755Z,26.60
2018-01-26T20:31:18.387Z,19.17
2018-01-26T20:33:46.043Z,19.27
2018-01-26T20:36:13.650Z,20.60
2018-01-26T20:38:41.271Z,16.90
2018-01-26T20:41:08.884Z,17.67
2018-01-26T20:43:36.501Z,18.33
2018-01-26T20:46:04.095Z,20.33
2018-01-26T20:48:31.735Z,14.23
2018-01-26T20:50:59.324Z,15.70
2018-01-26T20:53:27.093Z,14.30
2018-01-26T20:55:54.695Z,18.30
2018-01-26T20:58:22.304Z,11.40
2018-01-26T21:00:50.256Z,10.33
2018-01-26T21:03:17.856Z,13.63
2018-01-26T21:05:45.439Z,13.87
2018-01-26T21:08:13.059Z,10.70
2018-01-26T21:10:40.658Z,13.97
2018-01-26T21:13:08.264Z,14.57
2018-01-26T21:15:35.871Z,12.67
2018-01-26T21:18:03.501Z,14.53
2018-01-26T21:20:31.092Z,16.20
2018-01-26T21:22:58.724Z,16.00
2018-01-26T21:25:26.307Z,14.40
2018-01-26T21:27:54.254Z,16.57
2018-01-26T21:30:21.850Z,16.50
2018-01-26T21:32:49.440Z,13.83
2018-01-26T21:35:17.081Z,13.07
2018-01-26T21:37:44.666Z,14.60
2018-01-26T21:40:12.284Z,16.97
2018-01-26T21:42:39.879Z,19.33
2018-01-26T21:45:07.680Z,16.17
2018-01-26T21:47:35.267Z,15.57
2018-01-26T21:50:02.860Z,17.10
2018-01-26T21:52:30.466Z,18.57
2018-01-26T21:54:58.069Z,24.93
2018-01-26T21:57:25.692Z,17.30
2018-01-26T21:59:53.289Z,16.67
2018-01-26T22:02:21.231Z,16.73
2018-01-26T22:04:54.400Z,18.40
2018-01-26T22:07:27.612Z,25.73
2018-01-26T22:09:55.215Z,20.73
2018-01-26T22:12:22.812Z,21.37
2018-01-26T22:14:50.432Z,17.30
2018-01-26T22:17:18.090Z,21.57
2018-01-26T22:19:45.708Z,22.57
2018-01-26T22:22:13.306Z,20.13
2018-01-26T22:24:41.337Z,21.20
2018-01-26T22:27:08.930Z,22.67
2018-01-26T22:29:36.532Z,18.77
2018-01-26T22:32:04.188Z,20.50
2018-01-26T22:34:31.827Z,24.87
2018-01-26T22:36:59.482Z,28.83
2018-01-26T22:39:27.117Z,28.47
2018-01-26T22:41:54.731Z,34.03
2018-01-26T22:44:22.364Z,29.80
2018-01-26T22:46:50.383Z,25.77
2018-01-26T22:49:17.989Z,27.30
2018-01-26T22:51:45.583Z,23.93
2018-01-26T22:54:13.224Z,27.37
2018-01-26T22:56:40.815Z,26.80
2018-01-26T22:59:08.435Z,33.70
2018-01-26T23:01:36.024Z,30.10
2018-01-26T23:04:03.748Z,36.13
2018-01-26T23:06:31.343Z,23.63
2018-01-26T23:08:58.936Z,42.67
2018-01-26T23:11:26.559Z,26.20
2018-01-26T23:13:54.152Z,30.97
2018-01-26T23:16:21.767Z,29.07
2018-01-26T23:18:49.376Z,32.43
2018-01-26T23:21:17.330Z,31.10
2018-01-26T23:23:44.945Z,29.30
2018-01-26T23:26:12.577Z,35.13
2018-01-26T23:28:40.201Z,29.90
2018-01-26T23:31:07.849Z,32.70
2018-01-26T23:33:35.462Z,39.43
2018-01-26T23:36:03.067Z,35.20
2018-01-26T23:38:30.894Z,32.73
2018-01-26T23:40:58.490Z,33.40
2018-01-26T23:43:26.087Z,38.47
2018-01-26T23:45:53.741Z,32.07
2018-01-26T23:48:21.335Z,37.00
2018-01-26T23:50:48.967Z,32.03
2018-01-26T23:53:16.557Z,35.40
2018-01-26T23:55:44.584Z,35.97
2018-01-26T23:58:12.325Z,33.53
